sensor_id;sensor_type;location;lat;lon;timestamp;temperature;humidity
38456;DHT22;24237;50.106;20.014;2022-07-18T00:01:59;16.40;1.00
38456;DHT22;24237;50.106;20.014;2022-07-18T00:04:33;16.30;1.00
38456;DHT22;24237;50.106;20.014;2022-07-18T00:07:05;16.20;1.00
38456;DHT22;24237;50.106;20.014;2022-07-18T00:09:30;16.30;1.00
38456;DHT22;24237;50.106;20.014;2022-07-18T00:11:56;16.50;1.00
38456;DHT22;24237;50.106;20.014;2022-07-18T00:14:22;16.70;99.90
38456;DHT22;24237;50.106;20.014;2022-07-18T00:16:48;16.70;99.90
38456;DHT22;24237;50.106;20.014;2022-07-18T00:19:18;16.50;99.90
38456;DHT22;24237;50.106;20.014;2022-07-18T00:21:44;16.60;99.90
38456;DHT22;24237;50.106;20.014;2022-07-18T00:24:10;16.60;99.90
38456;DHT22;24237;50.106;20.014;2022-07-18T00:26:36;16.40;1.00
38456;DHT22;24237;50.106;20.014;2022-07-18T00:29:08;16.30;1.00
38456;DHT22;24237;50.106;20.014;2022-07-18T00:31:34;16.30;1.00
38456;DHT22;24237;50.106;20.014;2022-07-18T00:34:00;16.50;1.00
38456;DHT22;24237;50.106;20.014;2022-07-18T00:36:26;16.50;1.00
38456;DHT22;24237;50.106;20.014;2022-07-18T00:38:52;16.60;99.90
38456;DHT22;24237;50.106;20.014;2022-07-18T00:41:18;16.50;99.90
38456;DHT22;24237;50.106;20.014;2022-07-18T00:43:43;16.40;99.90
38456;DHT22;24237;50.106;20.014;2022-07-18T00:46:09;16.50;99.90
38456;DHT22;24237;50.106;20.014;2022-07-18T00:48:41;16.50;99.90
38456;DHT22;24237;50.106;20.014;2022-07-18T00:51:39;16.20;1.00
38456;DHT22;24237;50.106;20.014;2022-07-18T00:54:05;16.30;1.00
38456;DHT22;24237;50.106;20.014;2022-07-18T00:56:31;16.30;99.90
38456;DHT22;24237;50.106;20.014;2022-07-18T00:58:57;16.30;1.00
38456;DHT22;24237;50.106;20.014;2022-07-18T01:01:22;16.30;1.00
38456;DHT22;24237;50.106;20.014;2022-07-18T01:04:07;16.30;1.00
38456;DHT22;24237;50.106;20.014;2022-07-18T01:06:32;16.30;1.00
38456;DHT22;24237;50.106;20.014;2022-07-18T01:08:58;16.20;1.00
38456;DHT22;24237;50.106;20.014;2022-07-18T01:11:24;16.00;1.00
38456;DHT22;24237;50.106;20.014;2022-07-18T01:13:50;16.00;99.90
38456;DHT22;24237;50.106;20.014;2022-07-18T01:16:16;15.90;99.90
38456;DHT22;24237;50.106;20.014;2022-07-18T01:18:47;16.00;99.90
38456;DHT22;24237;50.106;20.014;2022-07-18T01:21:13;15.80;99.90
38456;DHT22;24237;50.106;20.014;2022-07-18T01:23:48;15.90;3.20
38456;DHT22;24237;50.106;20.014;2022-07-18T01:26:15;15.90;1.00
38456;DHT22;24237;50.106;20.014;2022-07-18T01:28:42;15.90;99.90
38456;DHT22;24237;50.106;20.014;2022-07-18T01:31:08;16.10;99.90
38456;DHT22;24237;50.106;20.014;2022-07-18T01:33:34;15.90;99.90
38456;DHT22;24237;50.106;20.014;2022-07-18T01:36:01;15.90;99.90
38456;DHT22;24237;50.106;20.014;2022-07-18T01:38:31;15.80;1.00
38456;DHT22;24237;50.106;20.014;2022-07-18T01:40:57;16.00;1.00
38456;DHT22;24237;50.106;20.014;2022-07-18T01:43:24;15.90;1.00
38456;DHT22;24237;50.106;20.014;2022-07-18T01:45:49;15.60;1.00
38456;DHT22;24237;50.106;20.014;2022-07-18T01:48:15;15.60;69.20
38456;DHT22;24237;50.106;20.014;2022-07-18T01:50:41;15.50;99.90
38456;DHT22;24237;50.106;20.014;2022-07-18T01:53:07;15.40;99.90
38456;DHT22;24237;50.106;20.014;2022-07-18T01:55:32;15.40;1.00
38456;DHT22;24237;50.106;20.014;2022-07-18T01:57:58;15.30;99.90
38456;DHT22;24237;50.106;20.014;2022-07-18T02:00:24;15.30;99.90
38456;DHT22;24237;50.106;20.014;2022-07-18T02:02:49;15.30;99.90
38456;DHT22;24237;50.106;20.014;2022-07-18T02:05:15;15.10;1.00
38456;DHT22;24237;50.106;20.014;2022-07-18T02:07:41;15.00;48.70
38456;DHT22;24237;50.106;20.014;2022-07-18T02:10:13;14.90;85.10
38456;DHT22;24237;50.106;20.014;2022-07-18T02:12:40;15.10;1.00
38456;DHT22;24237;50.106;20.014;2022-07-18T02:15:07;15.10;1.00
38456;DHT22;24237;50.106;20.014;2022-07-18T02:17:35;15.20;1.00
38456;DHT22;24237;50.106;20.014;2022-07-18T02:20:01;15.10;28.50
38456;DHT22;24237;50.106;20.014;2022-07-18T02:22:27;15.00;99.90
38456;DHT22;24237;50.106;20.014;2022-07-18T02:24:52;15.00;99.90
38456;DHT22;24237;50.106;20.014;2022-07-18T02:27:22;15.20;91.00
38456;DHT22;24237;50.106;20.014;2022-07-18T02:29:47;15.10;99.90
38456;DHT22;24237;50.106;20.014;2022-07-18T02:32:13;14.80;99.90
38456;DHT22;24237;50.106;20.014;2022-07-18T02:34:39;14.70;99.90
38456;DHT22;24237;50.106;20.014;2022-07-18T02:37:05;14.80;99.90
38456;DHT22;24237;50.106;20.014;2022-07-18T02:39:30;14.90;99.90
38456;DHT22;24237;50.106;20.014;2022-07-18T02:41:56;14.80;99.90
38456;DHT22;24237;50.106;20.014;2022-07-18T02:44:22;14.80;99.90
38456;DHT22;24237;50.106;20.014;2022-07-18T02:46:49;14.70;99.90
38456;DHT22;24237;50.106;20.014;2022-07-18T02:49:15;14.60;99.90
38456;DHT22;24237;50.106;20.014;2022-07-18T02:52:04;14.50;1.00
38456;DHT22;24237;50.106;20.014;2022-07-18T02:54:34;14.60;99.90
38456;DHT22;24237;50.106;20.014;2022-07-18T02:57:00;14.60;1.00
38456;DHT22;24237;50.106;20.014;2022-07-18T02:59:26;14.80;99.90
38456;DHT22;24237;50.106;20.014;2022-07-18T03:01:52;15.00;99.90
38456;DHT22;24237;50.106;20.014;2022-07-18T03:04:19;14.80;99.90
38456;DHT22;24237;50.106;20.014;2022-07-18T03:06:45;14.90;99.90
38456;DHT22;24237;50.106;20.014;2022-07-18T03:09:12;14.90;99.90
38456;DHT22;24237;50.106;20.014;2022-07-18T03:11:38;15.00;99.90
38456;DHT22;24237;50.106;20.014;2022-07-18T03:14:03;14.90;1.00
38456;DHT22;24237;50.106;20.014;2022-07-18T03:16:29;14.90;1.00
38456;DHT22;24237;50.106;20.014;2022-07-18T03:18:55;14.80;1.00
38456;DHT22;24237;50.106;20.014;2022-07-18T03:21:20;15.10;99.90
38456;DHT22;24237;50.106;20.014;2022-07-18T03:23:46;15.00;99.90
38456;DHT22;24237;50.106;20.014;2022-07-18T03:26:12;14.90;99.90
38456;DHT22;24237;50.106;20.014;2022-07-18T03:28:41;14.90;99.90
38456;DHT22;24237;50.106;20.014;2022-07-18T03:31:06;14.90;99.90
38456;DHT22;24237;50.106;20.014;2022-07-18T03:33:32;15.00;99.90
38456;DHT22;24237;50.106;20.014;2022-07-18T03:35:58;15.00;99.90
38456;DHT22;24237;50.106;20.014;2022-07-18T03:38:24;15.00;99.90
38456;DHT22;24237;50.106;20.014;2022-07-18T03:40:50;14.90;99.90
38456;DHT22;24237;50.106;20.014;2022-07-18T03:43:15;14.90;99.90
38456;DHT22;24237;50.106;20.014;2022-07-18T03:45:41;15.10;99.90
38456;DHT22;24237;50.106;20.014;2022-07-18T03:48:07;15.00;99.90
38456;DHT22;24237;50.106;20.014;2022-07-18T03:50:32;15.10;99.90
38456;DHT22;24237;50.106;20.014;2022-07-18T03:52:59;15.00;99.90
38456;DHT22;24237;50.106;20.014;2022-07-18T03:55:25;15.00;99.90
38456;DHT22;24237;50.106;20.014;2022-07-18T03:57:50;15.10;99.90
38456;DHT22;24237;50.106;20.014;2022-07-18T04:00:16;15.20;99.10
38456;DHT22;24237;50.106;20.014;2022-07-18T04:02:47;15.30;1.00
38456;DHT22;24237;50.106;20.014;2022-07-18T04:05:18;15.20;99.90
38456;DHT22;24237;50.106;20.014;2022-07-18T04:07:44;15.00;1.00
38456;DHT22;24237;50.106;20.014;2022-07-18T04:10:11;15.00;1.00
38456;DHT22;24237;50.106;20.014;2022-07-18T04:12:48;15.20;1.00
38456;DHT22;24237;50.106;20.014;2022-07-18T04:15:17;15.50;99.90
38456;DHT22;24237;50.106;20.014;2022-07-18T04:17:43;15.40;99.90
38456;DHT22;24237;50.106;20.014;2022-07-18T04:20:11;15.30;99.90
38456;DHT22;24237;50.106;20.014;2022-07-18T04:22:55;15.40;99.90
38456;DHT22;24237;50.106;20.014;2022-07-18T04:25:22;15.30;99.90
38456;DHT22;24237;50.106;20.014;2022-07-18T04:27:49;15.40;99.90
38456;DHT22;24237;50.106;20.014;2022-07-18T04:30:19;15.70;99.90
38456;DHT22;24237;50.106;20.014;2022-07-18T04:32:48;15.90;99.90
38456;DHT22;24237;50.106;20.014;2022-07-18T04:35:22;16.20;66.50
38456;DHT22;24237;50.106;20.014;2022-07-18T04:37:50;16.10;1.00
38456;DHT22;24237;50.106;20.014;2022-07-18T04:40:16;16.30;1.00
38456;DHT22;24237;50.106;20.014;2022-07-18T04:42:42;16.50;1.00
38456;DHT22;24237;50.106;20.014;2022-07-18T04:45:11;16.50;1.00
38456;DHT22;24237;50.106;20.014;2022-07-18T04:47:37;16.60;99.90
38456;DHT22;24237;50.106;20.014;2022-07-18T04:50:03;16.70;99.90
38456;DHT22;24237;50.106;20.014;2022-07-18T04:52:48;16.90;99.90
38456;DHT22;24237;50.106;20.014;2022-07-18T04:55:24;16.90;99.90
38456;DHT22;24237;50.106;20.014;2022-07-18T04:57:51;17.00;99.90
38456;DHT22;24237;50.106;20.014;2022-07-18T05:00:19;17.10;27.00
38456;DHT22;24237;50.106;20.014;2022-07-18T05:02:48;17.30;1.00
38456;DHT22;24237;50.106;20.014;2022-07-18T05:05:21;17.30;99.90
38456;DHT22;24237;50.106;20.014;2022-07-18T05:07:47;17.50;99.90
38456;DHT22;24237;50.106;20.014;2022-07-18T05:10:18;17.60;99.90
38456;DHT22;24237;50.106;20.014;2022-07-18T05:12:47;17.80;1.00
38456;DHT22;24237;50.106;20.014;2022-07-18T05:15:16;17.90;99.90
38456;DHT22;24237;50.106;20.014;2022-07-18T05:17:43;17.70;99.90
38456;DHT22;24237;50.106;20.014;2022-07-18T05:20:13;17.50;99.90
38456;DHT22;24237;50.106;20.014;2022-07-18T05:26:14;17.90;99.90
38456;DHT22;24237;50.106;20.014;2022-07-18T05:28:40;18.20;1.00
38456;DHT22;24237;50.106;20.014;2022-07-18T05:31:08;18.10;1.00
38456;DHT22;24237;50.106;20.014;2022-07-18T05:33:33;18.20;1.00
38456;DHT22;24237;50.106;20.014;2022-07-18T05:35:59;18.30;1.00
38456;DHT22;24237;50.106;20.014;2022-07-18T05:38:27;18.40;99.90
38456;DHT22;24237;50.106;20.014;2022-07-18T05:40:52;18.40;99.90
38456;DHT22;24237;50.106;20.014;2022-07-18T05:43:18;18.50;99.90
38456;DHT22;24237;50.106;20.014;2022-07-18T05:45:43;18.40;99.90
38456;DHT22;24237;50.106;20.014;2022-07-18T05:48:09;18.40;99.90
38456;DHT22;24237;50.106;20.014;2022-07-18T05:50:35;18.90;46.40
38456;DHT22;24237;50.106;20.014;2022-07-18T05:53:00;18.90;1.00
38456;DHT22;24237;50.106;20.014;2022-07-18T05:55:26;19.00;99.90
38456;DHT22;24237;50.106;20.014;2022-07-18T05:57:51;19.30;99.90
38456;DHT22;24237;50.106;20.014;2022-07-18T06:00:18;19.40;99.90
38456;DHT22;24237;50.106;20.014;2022-07-18T06:02:46;19.40;99.90
38456;DHT22;24237;50.106;20.014;2022-07-18T06:05:12;19.30;99.90
38456;DHT22;24237;50.106;20.014;2022-07-18T06:07:37;19.50;99.90
38456;DHT22;24237;50.106;20.014;2022-07-18T06:10:05;19.30;99.90
38456;DHT22;24237;50.106;20.014;2022-07-18T06:12:31;19.40;99.90
38456;DHT22;24237;50.106;20.014;2022-07-18T06:14:58;19.50;1.00
38456;DHT22;24237;50.106;20.014;2022-07-18T06:17:27;19.70;99.90
38456;DHT22;24237;50.106;20.014;2022-07-18T06:19:55;19.90;99.90
38456;DHT22;24237;50.106;20.014;2022-07-18T06:22:22;19.80;99.90
38456;DHT22;24237;50.106;20.014;2022-07-18T06:24:54;19.70;99.90
38456;DHT22;24237;50.106;20.014;2022-07-18T06:27:19;19.70;99.90
38456;DHT22;24237;50.106;20.014;2022-07-18T06:29:45;19.70;99.90
38456;DHT22;24237;50.106;20.014;2022-07-18T06:32:10;20.00;99.90
38456;DHT22;24237;50.106;20.014;2022-07-18T06:34:36;20.00;1.00
38456;DHT22;24237;50.106;20.014;2022-07-18T06:37:01;19.70;1.00
38456;DHT22;24237;50.106;20.014;2022-07-18T06:39:30;19.60;18.70
38456;DHT22;24237;50.106;20.014;2022-07-18T06:41:56;19.90;21.00
38456;DHT22;24237;50.106;20.014;2022-07-18T06:44:21;20.00;2.50
38456;DHT22;24237;50.106;20.014;2022-07-18T06:46:47;20.10;1.00
38456;DHT22;24237;50.106;20.014;2022-07-18T06:49:12;20.10;1.00
38456;DHT22;24237;50.106;20.014;2022-07-18T06:51:38;20.20;1.00
38456;DHT22;24237;50.106;20.014;2022-07-18T06:54:04;20.40;1.00
38456;DHT22;24237;50.106;20.014;2022-07-18T06:56:29;20.50;1.00
38456;DHT22;24237;50.106;20.014;2022-07-18T06:58:55;20.60;99.90
38456;DHT22;24237;50.106;20.014;2022-07-18T07:01:21;20.80;99.90
38456;DHT22;24237;50.106;20.014;2022-07-18T07:03:47;20.90;99.90
38456;DHT22;24237;50.106;20.014;2022-07-18T07:06:13;21.00;99.90
38456;DHT22;24237;50.106;20.014;2022-07-18T07:08:39;21.30;99.90
38456;DHT22;24237;50.106;20.014;2022-07-18T07:11:04;21.40;29.20
38456;DHT22;24237;50.106;20.014;2022-07-18T07:13:31;21.40;1.00
38456;DHT22;24237;50.106;20.014;2022-07-18T07:15:57;21.80;99.90
38456;DHT22;24237;50.106;20.014;2022-07-18T07:18:22;22.00;99.90
38456;DHT22;24237;50.106;20.014;2022-07-18T07:20:48;22.10;99.90
38456;DHT22;24237;50.106;20.014;2022-07-18T07:23:13;22.20;99.90
38456;DHT22;24237;50.106;20.014;2022-07-18T07:25:39;22.30;99.90
38456;DHT22;24237;50.106;20.014;2022-07-18T07:28:06;22.50;99.90
38456;DHT22;24237;50.106;20.014;2022-07-18T07:30:33;22.50;99.90
38456;DHT22;24237;50.106;20.014;2022-07-18T07:32:59;22.60;99.90
38456;DHT22;24237;50.106;20.014;2022-07-18T07:38:47;22.70;24.20
38456;DHT22;24237;50.106;20.014;2022-07-18T07:41:12;22.40;1.00
38456;DHT22;24237;50.106;20.014;2022-07-18T07:43:41;22.40;1.00
38456;DHT22;24237;50.106;20.014;2022-07-18T07:46:07;22.60;1.00
38456;DHT22;24237;50.106;20.014;2022-07-18T07:48:32;22.80;1.00
38456;DHT22;24237;50.106;20.014;2022-07-18T07:50:58;22.90;1.00
38456;DHT22;24237;50.106;20.014;2022-07-18T07:53:24;23.00;1.00
38456;DHT22;24237;50.106;20.014;2022-07-18T07:55:49;22.90;1.00
38456;DHT22;24237;50.106;20.014;2022-07-18T07:58:15;22.80;99.90
38456;DHT22;24237;50.106;20.014;2022-07-18T08:00:41;23.00;99.90
38456;DHT22;24237;50.106;20.014;2022-07-18T08:03:07;23.20;99.90
38456;DHT22;24237;50.106;20.014;2022-07-18T08:05:38;23.40;99.90
38456;DHT22;24237;50.106;20.014;2022-07-18T08:08:05;23.00;99.90
38456;DHT22;24237;50.106;20.014;2022-07-18T08:10:31;23.40;99.90
38456;DHT22;24237;50.106;20.014;2022-07-18T08:12:57;23.40;99.90
38456;DHT22;24237;50.106;20.014;2022-07-18T08:15:23;23.70;99.90
38456;DHT22;24237;50.106;20.014;2022-07-18T08:17:50;23.90;99.90
38456;DHT22;24237;50.106;20.014;2022-07-18T08:20:15;23.60;99.90
38456;DHT22;24237;50.106;20.014;2022-07-18T08:23:01;23.70;93.70
38456;DHT22;24237;50.106;20.014;2022-07-18T08:25:29;23.60;69.90
38456;DHT22;24237;50.106;20.014;2022-07-18T08:27:55;23.40;59.20
38456;DHT22;24237;50.106;20.014;2022-07-18T08:30:21;23.40;57.00
38456;DHT22;24237;50.106;20.014;2022-07-18T08:32:47;23.60;50.00
38456;DHT22;24237;50.106;20.014;2022-07-18T08:35:22;23.80;45.40
38456;DHT22;24237;50.106;20.014;2022-07-18T08:37:48;23.60;44.60
38456;DHT22;24237;50.106;20.014;2022-07-18T08:40:14;23.80;39.10
38456;DHT22;24237;50.106;20.014;2022-07-18T08:42:40;23.90;33.10
38456;DHT22;24237;50.106;20.014;2022-07-18T08:45:06;23.80;33.20
38456;DHT22;24237;50.106;20.014;2022-07-18T08:47:32;24.00;23.90
38456;DHT22;24237;50.106;20.014;2022-07-18T08:49:59;23.80;18.10
38456;DHT22;24237;50.106;20.014;2022-07-18T08:52:26;24.00;22.70
38456;DHT22;24237;50.106;20.014;2022-07-18T08:54:52;24.30;15.90
38456;DHT22;24237;50.106;20.014;2022-07-18T08:57:24;24.10;4.10
38456;DHT22;24237;50.106;20.014;2022-07-18T09:00:04;24.30;1.00
38456;DHT22;24237;50.106;20.014;2022-07-18T09:02:34;24.20;1.00
38456;DHT22;24237;50.106;20.014;2022-07-18T09:05:04;24.50;2.30
38456;DHT22;24237;50.106;20.014;2022-07-18T09:07:34;24.10;1.00
38456;DHT22;24237;50.106;20.014;2022-07-18T09:10:04;24.20;7.00
38456;DHT22;24237;50.106;20.014;2022-07-18T09:12:31;24.30;1.00
38456;DHT22;24237;50.106;20.014;2022-07-18T09:14:57;24.00;1.00
38456;DHT22;24237;50.106;20.014;2022-07-18T09:17:28;23.90;1.00
38456;DHT22;24237;50.106;20.014;2022-07-18T09:20:09;24.30;1.00
38456;DHT22;24237;50.106;20.014;2022-07-18T09:22:38;24.30;1.00
38456;DHT22;24237;50.106;20.014;2022-07-18T09:32:46;24.10;1.00
38456;DHT22;24237;50.106;20.014;2022-07-18T09:35:21;24.60;1.00
38456;DHT22;24237;50.106;20.014;2022-07-18T09:38:00;24.80;1.00
38456;DHT22;24237;50.106;20.014;2022-07-18T09:40:28;24.80;1.00
38456;DHT22;24237;50.106;20.014;2022-07-18T09:42:57;24.80;1.00
38456;DHT22;24237;50.106;20.014;2022-07-18T09:45:29;24.90;1.00
38456;DHT22;24237;50.106;20.014;2022-07-18T09:48:07;24.90;1.00
38456;DHT22;24237;50.106;20.014;2022-07-18T09:50:42;25.20;1.00
38456;DHT22;24237;50.106;20.014;2022-07-18T09:53:17;25.50;1.00
38456;DHT22;24237;50.106;20.014;2022-07-18T09:55:50;25.50;1.00
38456;DHT22;24237;50.106;20.014;2022-07-18T09:58:20;25.30;1.00
38456;DHT22;24237;50.106;20.014;2022-07-18T10:00:46;25.40;1.00
38456;DHT22;24237;50.106;20.014;2022-07-18T10:03:12;25.30;1.00
38456;DHT22;24237;50.106;20.014;2022-07-18T10:05:39;25.10;1.00
38456;DHT22;24237;50.106;20.014;2022-07-18T10:08:08;25.40;1.00
38456;DHT22;24237;50.106;20.014;2022-07-18T10:10:35;25.60;1.00
38456;DHT22;24237;50.106;20.014;2022-07-18T10:13:02;25.60;1.00
38456;DHT22;24237;50.106;20.014;2022-07-18T10:15:30;25.50;1.00
38456;DHT22;24237;50.106;20.014;2022-07-18T10:17:57;25.10;1.00
38456;DHT22;24237;50.106;20.014;2022-07-18T10:20:36;25.00;1.00
38456;DHT22;24237;50.106;20.014;2022-07-18T10:23:20;25.20;1.00
38456;DHT22;24237;50.106;20.014;2022-07-18T10:28:30;25.70;1.00
38456;DHT22;24237;50.106;20.014;2022-07-18T10:31:12;25.50;1.00
38456;DHT22;24237;50.106;20.014;2022-07-18T10:33:44;25.80;1.00
38456;DHT22;24237;50.106;20.014;2022-07-18T10:36:22;26.20;1.00
38456;DHT22;24237;50.106;20.014;2022-07-18T10:39:37;25.90;1.00
38456;DHT22;24237;50.106;20.014;2022-07-18T10:57:37;26.00;1.00
38456;DHT22;24237;50.106;20.014;2022-07-18T11:13:28;26.30;1.00
38456;DHT22;24237;50.106;20.014;2022-07-18T11:18:27;26.70;1.00
38456;DHT22;24237;50.106;20.014;2022-07-18T11:20:53;27.00;1.00
38456;DHT22;24237;50.106;20.014;2022-07-18T11:23:24;27.00;1.00
38456;DHT22;24237;50.106;20.014;2022-07-18T11:25:51;26.60;1.00
38456;DHT22;24237;50.106;20.014;2022-07-18T11:28:18;26.70;1.00
38456;DHT22;24237;50.106;20.014;2022-07-18T11:31:04;26.30;1.00
38456;DHT22;24237;50.106;20.014;2022-07-18T11:33:32;26.70;1.00
38456;DHT22;24237;50.106;20.014;2022-07-18T11:36:14;27.00;1.00
38456;DHT22;24237;50.106;20.014;2022-07-18T11:38:56;26.90;1.00
38456;DHT22;24237;50.106;20.014;2022-07-18T11:41:23;27.20;1.00
38456;DHT22;24237;50.106;20.014;2022-07-18T11:43:51;27.40;1.00
38456;DHT22;24237;50.106;20.014;2022-07-18T11:46:20;27.90;1.00
38456;DHT22;24237;50.106;20.014;2022-07-18T11:48:48;27.60;1.00
38456;DHT22;24237;50.106;20.014;2022-07-18T11:51:32;27.40;1.00
38456;DHT22;24237;50.106;20.014;2022-07-18T11:54:08;27.70;1.00
38456;DHT22;24237;50.106;20.014;2022-07-18T11:56:47;27.50;1.00
38456;DHT22;24237;50.106;20.014;2022-07-18T11:59:13;27.40;1.00
38456;DHT22;24237;50.106;20.014;2022-07-18T12:01:39;27.50;1.00
38456;DHT22;24237;50.106;20.014;2022-07-18T12:04:05;27.80;1.00
38456;DHT22;24237;50.106;20.014;2022-07-18T12:06:31;27.80;1.00
38456;DHT22;24237;50.106;20.014;2022-07-18T12:08:58;27.90;1.00
38456;DHT22;24237;50.106;20.014;2022-07-18T12:11:31;28.20;1.00
38456;DHT22;24237;50.106;20.014;2022-07-18T12:14:00;28.50;1.00
38456;DHT22;24237;50.106;20.014;2022-07-18T12:16:39;28.70;1.00
38456;DHT22;24237;50.106;20.014;2022-07-18T12:27:22;28.80;1.00
38456;DHT22;24237;50.106;20.014;2022-07-18T12:32:49;29.20;1.00
38456;DHT22;24237;50.106;20.014;2022-07-18T12:35:42;29.50;1.00
38456;DHT22;24237;50.106;20.014;2022-07-18T12:38:10;30.10;1.00
38456;DHT22;24237;50.106;20.014;2022-07-18T12:40:54;30.20;1.00
38456;DHT22;24237;50.106;20.014;2022-07-18T12:43:23;30.40;1.00
38456;DHT22;24237;50.106;20.014;2022-07-18T12:45:50;29.70;1.00
38456;DHT22;24237;50.106;20.014;2022-07-18T12:48:16;29.50;1.00
38456;DHT22;24237;50.106;20.014;2022-07-18T12:50:43;30.90;1.00
38456;DHT22;24237;50.106;20.014;2022-07-18T12:53:10;31.50;1.00
38456;DHT22;24237;50.106;20.014;2022-07-18T12:55:36;31.90;1.00
38456;DHT22;24237;50.106;20.014;2022-07-18T12:58:02;32.20;1.00
38456;DHT22;24237;50.106;20.014;2022-07-18T13:00:29;32.50;1.00
38456;DHT22;24237;50.106;20.014;2022-07-18T13:02:56;32.60;1.00
38456;DHT22;24237;50.106;20.014;2022-07-18T13:05:24;32.70;1.00
38456;DHT22;24237;50.106;20.014;2022-07-18T13:07:49;33.50;1.00
38456;DHT22;24237;50.106;20.014;2022-07-18T13:10:15;33.70;1.00
38456;DHT22;24237;50.106;20.014;2022-07-18T13:12:41;33.90;1.00
38456;DHT22;24237;50.106;20.014;2022-07-18T13:15:07;34.50;1.00
38456;DHT22;24237;50.106;20.014;2022-07-18T13:17:41;34.50;1.00
38456;DHT22;24237;50.106;20.014;2022-07-18T13:20:07;33.60;1.00
38456;DHT22;24237;50.106;20.014;2022-07-18T13:22:32;32.80;1.00
38456;DHT22;24237;50.106;20.014;2022-07-18T13:25:07;33.00;1.00
38456;DHT22;24237;50.106;20.014;2022-07-18T13:27:34;33.40;1.00
38456;DHT22;24237;50.106;20.014;2022-07-18T13:30:00;34.40;1.00
38456;DHT22;24237;50.106;20.014;2022-07-18T13:32:27;33.90;1.00
38456;DHT22;24237;50.106;20.014;2022-07-18T13:34:53;34.40;1.00
38456;DHT22;24237;50.106;20.014;2022-07-18T13:37:19;34.50;1.00
38456;DHT22;24237;50.106;20.014;2022-07-18T13:39:44;35.10;1.00
38456;DHT22;24237;50.106;20.014;2022-07-18T13:42:10;36.10;1.00
38456;DHT22;24237;50.106;20.014;2022-07-18T13:44:35;35.50;1.00
38456;DHT22;24237;50.106;20.014;2022-07-18T13:47:01;35.30;1.00
38456;DHT22;24237;50.106;20.014;2022-07-18T13:49:27;34.80;1.00
38456;DHT22;24237;50.106;20.014;2022-07-18T13:51:52;34.50;1.00
38456;DHT22;24237;50.106;20.014;2022-07-18T13:54:18;34.10;1.00
38456;DHT22;24237;50.106;20.014;2022-07-18T13:56:44;32.80;1.00
38456;DHT22;24237;50.106;20.014;2022-07-18T13:59:10;31.80;1.00
38456;DHT22;24237;50.106;20.014;2022-07-18T14:01:36;31.30;1.00
38456;DHT22;24237;50.106;20.014;2022-07-18T14:04:02;32.20;1.00
38456;DHT22;24237;50.106;20.014;2022-07-18T14:06:27;33.40;1.00
38456;DHT22;24237;50.106;20.014;2022-07-18T14:08:53;34.30;1.00
38456;DHT22;24237;50.106;20.014;2022-07-18T14:11:19;33.90;1.00
38456;DHT22;24237;50.106;20.014;2022-07-18T14:13:45;34.20;1.00
38456;DHT22;24237;50.106;20.014;2022-07-18T14:16:13;35.10;1.00
38456;DHT22;24237;50.106;20.014;2022-07-18T14:18:39;35.20;1.00
38456;DHT22;24237;50.106;20.014;2022-07-18T14:21:05;34.80;1.00
38456;DHT22;24237;50.106;20.014;2022-07-18T14:23:30;35.10;1.00
38456;DHT22;24237;50.106;20.014;2022-07-18T14:25:56;35.40;1.00
38456;DHT22;24237;50.106;20.014;2022-07-18T14:28:22;35.20;1.00
38456;DHT22;24237;50.106;20.014;2022-07-18T14:30:47;34.70;1.00
38456;DHT22;24237;50.106;20.014;2022-07-18T14:33:13;34.90;1.00
38456;DHT22;24237;50.106;20.014;2022-07-18T14:35:39;35.10;1.00
38456;DHT22;24237;50.106;20.014;2022-07-18T14:38:05;36.00;1.00
38456;DHT22;24237;50.106;20.014;2022-07-18T14:40:30;35.40;1.00
38456;DHT22;24237;50.106;20.014;2022-07-18T14:42:56;35.90;1.00
38456;DHT22;24237;50.106;20.014;2022-07-18T14:45:21;35.60;1.00
38456;DHT22;24237;50.106;20.014;2022-07-18T14:47:47;36.20;1.00
38456;DHT22;24237;50.106;20.014;2022-07-18T14:50:13;36.70;1.00
38456;DHT22;24237;50.106;20.014;2022-07-18T14:52:39;37.30;1.00
38456;DHT22;24237;50.106;20.014;2022-07-18T14:55:06;37.20;1.00
38456;DHT22;24237;50.106;20.014;2022-07-18T14:57:32;37.30;1.00
38456;DHT22;24237;50.106;20.014;2022-07-18T14:59:57;37.00;1.00
38456;DHT22;24237;50.106;20.014;2022-07-18T15:02:23;37.30;1.00
38456;DHT22;24237;50.106;20.014;2022-07-18T15:04:48;37.40;1.00
38456;DHT22;24237;50.106;20.014;2022-07-18T15:07:14;37.50;1.00
38456;DHT22;24237;50.106;20.014;2022-07-18T15:09:40;37.30;1.00
38456;DHT22;24237;50.106;20.014;2022-07-18T15:12:06;36.30;1.00
38456;DHT22;24237;50.106;20.014;2022-07-18T15:14:33;35.30;1.00
38456;DHT22;24237;50.106;20.014;2022-07-18T15:16:59;34.90;1.00
38456;DHT22;24237;50.106;20.014;2022-07-18T15:19:25;34.60;1.00
38456;DHT22;24237;50.106;20.014;2022-07-18T15:21:51;34.80;1.00
38456;DHT22;24237;50.106;20.014;2022-07-18T15:24:16;34.40;1.00
38456;DHT22;24237;50.106;20.014;2022-07-18T15:26:42;34.40;1.00
38456;DHT22;24237;50.106;20.014;2022-07-18T15:29:07;34.10;1.00
38456;DHT22;24237;50.106;20.014;2022-07-18T15:31:33;34.20;1.00
38456;DHT22;24237;50.106;20.014;2022-07-18T15:33:59;34.00;1.00
38456;DHT22;24237;50.106;20.014;2022-07-18T15:36:24;34.10;1.00
38456;DHT22;24237;50.106;20.014;2022-07-18T15:38:50;34.20;1.00
38456;DHT22;24237;50.106;20.014;2022-07-18T15:41:15;34.80;1.00
38456;DHT22;24237;50.106;20.014;2022-07-18T15:43:46;35.20;1.00
38456;DHT22;24237;50.106;20.014;2022-07-18T15:46:14;35.10;1.00
38456;DHT22;24237;50.106;20.014;2022-07-18T15:48:45;34.90;1.00
38456;DHT22;24237;50.106;20.014;2022-07-18T15:51:11;35.10;1.00
38456;DHT22;24237;50.106;20.014;2022-07-18T15:53:38;35.40;1.00
38456;DHT22;24237;50.106;20.014;2022-07-18T15:56:04;35.60;1.00
38456;DHT22;24237;50.106;20.014;2022-07-18T15:58:30;35.70;1.00
38456;DHT22;24237;50.106;20.014;2022-07-18T16:00:58;35.40;1.00
38456;DHT22;24237;50.106;20.014;2022-07-18T16:03:24;34.60;1.00
38456;DHT22;24237;50.106;20.014;2022-07-18T16:05:50;34.10;1.00
38456;DHT22;24237;50.106;20.014;2022-07-18T16:08:15;33.80;1.00
38456;DHT22;24237;50.106;20.014;2022-07-18T16:10:42;34.50;1.00
38456;DHT22;24237;50.106;20.014;2022-07-18T16:13:08;35.10;1.00
38456;DHT22;24237;50.106;20.014;2022-07-18T16:15:33;36.00;1.00
38456;DHT22;24237;50.106;20.014;2022-07-18T16:17:59;35.90;1.00
38456;DHT22;24237;50.106;20.014;2022-07-18T16:20:25;36.20;1.00
38456;DHT22;24237;50.106;20.014;2022-07-18T16:22:51;35.50;1.00
38456;DHT22;24237;50.106;20.014;2022-07-18T16:25:17;34.70;1.00
38456;DHT22;24237;50.106;20.014;2022-07-18T16:27:43;34.30;1.00
38456;DHT22;24237;50.106;20.014;2022-07-18T16:30:09;33.70;1.00